sensor_id;sensor_type;location;lat;lon;timestamp;temperature;humidity
21811;DHT22;11067;48.788;9.208;2022-10-10T00:00:54;11.80;99.90
21811;DHT22;11067;48.788;9.208;2022-10-10T00:03:20;11.80;99.90
21811;DHT22;11067;48.788;9.208;2022-10-10T00:05:46;11.80;99.90
21811;DHT22;11067;48.788;9.208;2022-10-10T00:08:12;11.80;99.90
21811;DHT22;11067;48.788;9.208;2022-10-10T00:10:38;11.80;99.90
21811;DHT22;11067;48.788;9.208;2022-10-10T00:13:05;11.80;99.90
21811;DHT22;11067;48.788;9.208;2022-10-10T00:15:31;11.80;99.90
21811;DHT22;11067;48.788;9.208;2022-10-10T00:17:56;11.80;99.90
21811;DHT22;11067;48.788;9.208;2022-10-10T00:20:22;11.90;99.90
21811;DHT22;11067;48.788;9.208;2022-10-10T00:22:48;11.90;99.90
21811;DHT22;11067;48.788;9.208;2022-10-10T00:25:14;11.90;99.90
21811;DHT22;11067;48.788;9.208;2022-10-10T00:27:40;12.00;99.90
21811;DHT22;11067;48.788;9.208;2022-10-10T00:30:08;12.00;99.90
21811;DHT22;11067;48.788;9.208;2022-10-10T00:32:34;11.90;99.90
21811;DHT22;11067;48.788;9.208;2022-10-10T00:35:01;11.90;99.90
21811;DHT22;11067;48.788;9.208;2022-10-10T00:37:26;12.00;99.90
21811;DHT22;11067;48.788;9.208;2022-10-10T00:39:52;12.00;99.90
21811;DHT22;11067;48.788;9.208;2022-10-10T00:42:18;12.00;99.90
21811;DHT22;11067;48.788;9.208;2022-10-10T00:44:45;12.00;99.90
21811;DHT22;11067;48.788;9.208;2022-10-10T00:47:11;12.10;99.90
21811;DHT22;11067;48.788;9.208;2022-10-10T00:49:40;12.00;99.90
21811;DHT22;11067;48.788;9.208;2022-10-10T00:52:07;12.00;99.90
21811;DHT22;11067;48.788;9.208;2022-10-10T00:54:38;12.00;99.90
21811;DHT22;11067;48.788;9.208;2022-10-10T00:57:11;12.00;99.90
21811;DHT22;11067;48.788;9.208;2022-10-10T00:59:40;12.00;99.90
21811;DHT22;11067;48.788;9.208;2022-10-10T01:02:06;12.00;99.90
21811;DHT22;11067;48.788;9.208;2022-10-10T01:04:36;12.10;99.90
21811;DHT22;11067;48.788;9.208;2022-10-10T01:07:15;12.20;99.90
21811;DHT22;11067;48.788;9.208;2022-10-10T01:09:44;12.30;99.90
21811;DHT22;11067;48.788;9.208;2022-10-10T01:12:37;12.30;99.90
21811;DHT22;11067;48.788;9.208;2022-10-10T01:20:58;12.30;99.90
21811;DHT22;11067;48.788;9.208;2022-10-10T01:28:55;12.20;99.90
21811;DHT22;11067;48.788;9.208;2022-10-10T01:31:24;12.20;99.90
21811;DHT22;11067;48.788;9.208;2022-10-10T01:36:49;12.10;99.90
21811;DHT22;11067;48.788;9.208;2022-10-10T01:39:45;12.10;99.90
21811;DHT22;11067;48.788;9.208;2022-10-10T01:42:27;12.10;99.90
21811;DHT22;11067;48.788;9.208;2022-10-10T01:44:54;12.10;99.90
21811;DHT22;11067;48.788;9.208;2022-10-10T01:47:21;12.20;99.90
21811;DHT22;11067;48.788;9.208;2022-10-10T01:49:50;12.10;99.90
21811;DHT22;11067;48.788;9.208;2022-10-10T02:01:01;11.90;99.90
21811;DHT22;11067;48.788;9.208;2022-10-10T02:03:38;11.90;99.90
21811;DHT22;11067;48.788;9.208;2022-10-10T02:06:11;11.90;99.90
21811;DHT22;11067;48.788;9.208;2022-10-10T02:08:47;11.90;99.90
21811;DHT22;11067;48.788;9.208;2022-10-10T02:11:13;11.80;99.90
21811;DHT22;11067;48.788;9.208;2022-10-10T02:13:51;11.80;99.90
21811;DHT22;11067;48.788;9.208;2022-10-10T02:16:25;11.80;99.90
21811;DHT22;11067;48.788;9.208;2022-10-10T02:18:52;11.70;99.90
21811;DHT22;11067;48.788;9.208;2022-10-10T02:21:19;11.70;99.90
21811;DHT22;11067;48.788;9.208;2022-10-10T02:23:47;11.70;99.90
21811;DHT22;11067;48.788;9.208;2022-10-10T02:26:15;11.70;99.90
21811;DHT22;11067;48.788;9.208;2022-10-10T02:28:50;11.70;99.90
21811;DHT22;11067;48.788;9.208;2022-10-10T02:31:42;11.70;99.90
21811;DHT22;11067;48.788;9.208;2022-10-10T02:34:15;11.70;99.90
21811;DHT22;11067;48.788;9.208;2022-10-10T02:36:44;11.70;99.90
21811;DHT22;11067;48.788;9.208;2022-10-10T02:39:12;11.70;99.90
21811;DHT22;11067;48.788;9.208;2022-10-10T02:41:38;11.70;99.90
21811;DHT22;11067;48.788;9.208;2022-10-10T02:44:05;11.70;99.90
21811;DHT22;11067;48.788;9.208;2022-10-10T02:46:31;11.70;99.90
21811;DHT22;11067;48.788;9.208;2022-10-10T02:48:57;11.80;99.90
21811;DHT22;11067;48.788;9.208;2022-10-10T02:51:23;11.80;99.90
21811;DHT22;11067;48.788;9.208;2022-10-10T02:53:48;11.70;99.90
21811;DHT22;11067;48.788;9.208;2022-10-10T02:56:14;11.70;99.90
21811;DHT22;11067;48.788;9.208;2022-10-10T02:58:39;11.70;99.90
21811;DHT22;11067;48.788;9.208;2022-10-10T03:01:05;11.60;99.90
21811;DHT22;11067;48.788;9.208;2022-10-10T03:03:30;11.60;99.90
21811;DHT22;11067;48.788;9.208;2022-10-10T03:05:56;11.60;99.90
21811;DHT22;11067;48.788;9.208;2022-10-10T03:08:21;11.70;99.90
21811;DHT22;11067;48.788;9.208;2022-10-10T03:10:58;11.70;99.90
21811;DHT22;11067;48.788;9.208;2022-10-10T03:13:24;11.60;99.90
21811;DHT22;11067;48.788;9.208;2022-10-10T03:15:50;11.60;99.90
21811;DHT22;11067;48.788;9.208;2022-10-10T03:18:16;11.60;99.90
21811;DHT22;11067;48.788;9.208;2022-10-10T03:20:44;11.70;99.90
21811;DHT22;11067;48.788;9.208;2022-10-10T03:23:10;11.70;99.90
21811;DHT22;11067;48.788;9.208;2022-10-10T03:25:40;11.70;99.90
21811;DHT22;11067;48.788;9.208;2022-10-10T03:28:05;11.60;99.90
21811;DHT22;11067;48.788;9.208;2022-10-10T03:30:31;11.60;99.90
21811;DHT22;11067;48.788;9.208;2022-10-10T03:32:56;11.60;99.90
21811;DHT22;11067;48.788;9.208;2022-10-10T03:35:22;11.60;99.90
21811;DHT22;11067;48.788;9.208;2022-10-10T03:37:47;11.60;99.90
21811;DHT22;11067;48.788;9.208;2022-10-10T03:40:13;11.50;99.90
21811;DHT22;11067;48.788;9.208;2022-10-10T03:42:38;11.50;99.90
21811;DHT22;11067;48.788;9.208;2022-10-10T03:45:04;11.50;99.90
21811;DHT22;11067;48.788;9.208;2022-10-10T03:47:30;11.40;99.90
21811;DHT22;11067;48.788;9.208;2022-10-10T03:49:56;11.40;99.90
21811;DHT22;11067;48.788;9.208;2022-10-10T03:52:21;11.40;99.90
21811;DHT22;11067;48.788;9.208;2022-10-10T03:54:47;11.40;99.90
21811;DHT22;11067;48.788;9.208;2022-10-10T03:57:12;11.40;99.90
21811;DHT22;11067;48.788;9.208;2022-10-10T03:59:38;11.40;99.90
21811;DHT22;11067;48.788;9.208;2022-10-10T04:02:03;11.40;99.90
21811;DHT22;11067;48.788;9.208;2022-10-10T04:04:30;11.40;99.90
21811;DHT22;11067;48.788;9.208;2022-10-10T04:06:55;11.40;99.90
21811;DHT22;11067;48.788;9.208;2022-10-10T04:09:22;11.30;99.90
21811;DHT22;11067;48.788;9.208;2022-10-10T04:11:47;11.30;99.90
21811;DHT22;11067;48.788;9.208;2022-10-10T04:14:12;11.30;99.90
21811;DHT22;11067;48.788;9.208;2022-10-10T04:16:38;11.30;99.90
21811;DHT22;11067;48.788;9.208;2022-10-10T04:19:03;11.30;99.90
21811;DHT22;11067;48.788;9.208;2022-10-10T04:21:29;11.30;99.90
21811;DHT22;11067;48.788;9.208;2022-10-10T04:23:55;11.30;99.90
21811;DHT22;11067;48.788;9.208;2022-10-10T04:26:20;11.30;99.90
21811;DHT22;11067;48.788;9.208;2022-10-10T04:28:46;11.30;99.90
21811;DHT22;11067;48.788;9.208;2022-10-10T04:31:11;11.40;99.90
21811;DHT22;11067;48.788;9.208;2022-10-10T04:33:37;11.40;99.90
21811;DHT22;11067;48.788;9.208;2022-10-10T04:36:02;11.40;99.90
21811;DHT22;11067;48.788;9.208;2022-10-10T04:38:28;11.30;99.90
21811;DHT22;11067;48.788;9.208;2022-10-10T04:40:54;11.30;99.90
21811;DHT22;11067;48.788;9.208;2022-10-10T04:43:19;11.40;99.90
21811;DHT22;11067;48.788;9.208;2022-10-10T04:45:45;11.40;99.90
21811;DHT22;11067;48.788;9.208;2022-10-10T04:48:11;11.30;99.90
21811;DHT22;11067;48.788;9.208;2022-10-10T04:50:36;11.30;99.90
21811;DHT22;11067;48.788;9.208;2022-10-10T04:53:02;11.30;99.90
21811;DHT22;11067;48.788;9.208;2022-10-10T04:55:28;11.30;99.90
21811;DHT22;11067;48.788;9.208;2022-10-10T04:57:53;11.30;99.90
21811;DHT22;11067;48.788;9.208;2022-10-10T05:00:19;11.20;99.90
21811;DHT22;11067;48.788;9.208;2022-10-10T05:02:44;11.30;99.90
21811;DHT22;11067;48.788;9.208;2022-10-10T05:05:10;11.30;99.90
21811;DHT22;11067;48.788;9.208;2022-10-10T05:07:35;11.30;99.90
21811;DHT22;11067;48.788;9.208;2022-10-10T05:10:01;11.30;99.90
21811;DHT22;11067;48.788;9.208;2022-10-10T05:12:27;11.30;99.90
21811;DHT22;11067;48.788;9.208;2022-10-10T05:14:52;11.30;99.90
21811;DHT22;11067;48.788;9.208;2022-10-10T05:17:18;11.30;99.90
21811;DHT22;11067;48.788;9.208;2022-10-10T05:19:44;11.40;99.90
21811;DHT22;11067;48.788;9.208;2022-10-10T05:22:10;11.30;99.90
21811;DHT22;11067;48.788;9.208;2022-10-10T05:24:35;11.30;99.90
21811;DHT22;11067;48.788;9.208;2022-10-10T05:27:01;11.30;99.90
21811;DHT22;11067;48.788;9.208;2022-10-10T05:29:27;11.30;99.90
21811;DHT22;11067;48.788;9.208;2022-10-10T05:31:53;11.30;99.90
21811;DHT22;11067;48.788;9.208;2022-10-10T05:34:18;11.40;99.90
21811;DHT22;11067;48.788;9.208;2022-10-10T05:36:44;11.40;99.90
21811;DHT22;11067;48.788;9.208;2022-10-10T05:39:09;11.40;99.90
21811;DHT22;11067;48.788;9.208;2022-10-10T05:41:35;11.40;99.90
21811;DHT22;11067;48.788;9.208;2022-10-10T05:44:01;11.30;99.90
21811;DHT22;11067;48.788;9.208;2022-10-10T05:46:26;11.40;99.90
21811;DHT22;11067;48.788;9.208;2022-10-10T05:48:52;11.40;99.90
21811;DHT22;11067;48.788;9.208;2022-10-10T05:51:18;11.40;99.90
21811;DHT22;11067;48.788;9.208;2022-10-10T05:53:44;11.40;99.90
21811;DHT22;11067;48.788;9.208;2022-10-10T05:56:10;11.40;99.90
21811;DHT22;11067;48.788;9.208;2022-10-10T05:58:36;11.40;99.90
21811;DHT22;11067;48.788;9.208;2022-10-10T06:01:06;11.40;99.90
21811;DHT22;11067;48.788;9.208;2022-10-10T06:03:32;11.50;99.90
21811;DHT22;11067;48.788;9.208;2022-10-10T06:05:58;11.40;99.90
21811;DHT22;11067;48.788;9.208;2022-10-10T06:08:24;11.40;99.90
21811;DHT22;11067;48.788;9.208;2022-10-10T06:10:50;11.50;99.90
21811;DHT22;11067;48.788;9.208;2022-10-10T06:13:17;11.50;99.90
21811;DHT22;11067;48.788;9.208;2022-10-10T06:15:43;11.50;99.90
21811;DHT22;11067;48.788;9.208;2022-10-10T06:18:09;11.50;99.90
21811;DHT22;11067;48.788;9.208;2022-10-10T06:20:36;11.50;99.90
21811;DHT22;11067;48.788;9.208;2022-10-10T06:23:03;11.60;99.90
21811;DHT22;11067;48.788;9.208;2022-10-10T06:25:28;11.60;99.90
21811;DHT22;11067;48.788;9.208;2022-10-10T06:27:54;11.70;99.90
21811;DHT22;11067;48.788;9.208;2022-10-10T06:30:21;11.70;99.90
21811;DHT22;11067;48.788;9.208;2022-10-10T06:32:46;11.80;99.90
21811;DHT22;11067;48.788;9.208;2022-10-10T06:35:12;11.80;99.90
21811;DHT22;11067;48.788;9.208;2022-10-10T06:37:37;11.80;99.90
21811;DHT22;11067;48.788;9.208;2022-10-10T06:40:03;11.90;99.90
21811;DHT22;11067;48.788;9.208;2022-10-10T06:42:29;11.90;99.90
21811;DHT22;11067;48.788;9.208;2022-10-10T06:44:54;12.00;99.90
21811;DHT22;11067;48.788;9.208;2022-10-10T06:47:20;12.00;99.90
21811;DHT22;11067;48.788;9.208;2022-10-10T06:49:45;12.00;99.90
21811;DHT22;11067;48.788;9.208;2022-10-10T06:52:11;12.10;99.90
21811;DHT22;11067;48.788;9.208;2022-10-10T06:54:36;12.00;99.90
21811;DHT22;11067;48.788;9.208;2022-10-10T06:57:02;12.00;99.90
21811;DHT22;11067;48.788;9.208;2022-10-10T06:59:28;12.00;99.90
21811;DHT22;11067;48.788;9.208;2022-10-10T07:01:53;12.00;99.90
21811;DHT22;11067;48.788;9.208;2022-10-10T07:04:19;12.10;99.90
21811;DHT22;11067;48.788;9.208;2022-10-10T07:06:44;12.10;99.90
21811;DHT22;11067;48.788;9.208;2022-10-10T07:09:10;12.10;99.90
21811;DHT22;11067;48.788;9.208;2022-10-10T07:11:35;12.30;99.90
21811;DHT22;11067;48.788;9.208;2022-10-10T07:14:01;12.30;99.90
21811;DHT22;11067;48.788;9.208;2022-10-10T07:16:26;12.20;99.90
21811;DHT22;11067;48.788;9.208;2022-10-10T07:18:52;12.30;99.90
21811;DHT22;11067;48.788;9.208;2022-10-10T07:21:18;12.40;99.90
21811;DHT22;11067;48.788;9.208;2022-10-10T07:23:43;12.50;99.90
21811;DHT22;11067;48.788;9.208;2022-10-10T07:26:13;12.70;99.90
21811;DHT22;11067;48.788;9.208;2022-10-10T07:28:39;12.70;99.90
21811;DHT22;11067;48.788;9.208;2022-10-10T07:31:08;12.80;99.90
21811;DHT22;11067;48.788;9.208;2022-10-10T07:33:38;12.80;99.90
21811;DHT22;11067;48.788;9.208;2022-10-10T07:36:05;12.80;99.90
21811;DHT22;11067;48.788;9.208;2022-10-10T07:38:30;12.80;99.90
21811;DHT22;11067;48.788;9.208;2022-10-10T07:40:56;12.80;99.90
21811;DHT22;11067;48.788;9.208;2022-10-10T07:43:22;12.90;99.90
21811;DHT22;11067;48.788;9.208;2022-10-10T07:45:47;12.80;99.90
21811;DHT22;11067;48.788;9.208;2022-10-10T07:48:13;12.80;99.90
21811;DHT22;11067;48.788;9.208;2022-10-10T07:50:43;13.00;99.90
21811;DHT22;11067;48.788;9.208;2022-10-10T07:53:09;13.00;99.90
21811;DHT22;11067;48.788;9.208;2022-10-10T07:55:39;13.00;99.90
21811;DHT22;11067;48.788;9.208;2022-10-10T07:58:05;13.20;99.90
21811;DHT22;11067;48.788;9.208;2022-10-10T08:00:31;13.20;99.90
21811;DHT22;11067;48.788;9.208;2022-10-10T08:02:57;13.30;99.90
21811;DHT22;11067;48.788;9.208;2022-10-10T08:05:23;13.40;99.90
21811;DHT22;11067;48.788;9.208;2022-10-10T08:07:49;13.50;99.90
21811;DHT22;11067;48.788;9.208;2022-10-10T08:10:14;13.60;99.90
21811;DHT22;11067;48.788;9.208;2022-10-10T08:12:40;13.60;99.90
21811;DHT22;11067;48.788;9.208;2022-10-10T08:15:06;13.70;99.90
21811;DHT22;11067;48.788;9.208;2022-10-10T08:17:32;13.80;99.90
21811;DHT22;11067;48.788;9.208;2022-10-10T08:19:58;13.90;99.90
21811;DHT22;11067;48.788;9.208;2022-10-10T08:22:23;14.10;99.90
21811;DHT22;11067;48.788;9.208;2022-10-10T08:24:49;14.10;99.90
21811;DHT22;11067;48.788;9.208;2022-10-10T08:27:14;14.30;99.90
21811;DHT22;11067;48.788;9.208;2022-10-10T08:29:42;14.20;99.90
21811;DHT22;11067;48.788;9.208;2022-10-10T08:32:08;14.40;99.90
21811;DHT22;11067;48.788;9.208;2022-10-10T08:34:33;14.60;99.90
21811;DHT22;11067;48.788;9.208;2022-10-10T08:36:59;14.60;99.90
21811;DHT22;11067;48.788;9.208;2022-10-10T08:39:24;14.50;99.90
21811;DHT22;11067;48.788;9.208;2022-10-10T08:41:52;14.60;99.90
21811;DHT22;11067;48.788;9.208;2022-10-10T08:44:38;14.60;99.90
21811;DHT22;11067;48.788;9.208;2022-10-10T08:49:41;14.80;99.90
21811;DHT22;11067;48.788;9.208;2022-10-10T08:54:43;15.10;99.90
21811;DHT22;11067;48.788;9.208;2022-10-10T08:57:21;15.20;99.90
21811;DHT22;11067;48.788;9.208;2022-10-10T08:59:49;15.30;99.90
21811;DHT22;11067;48.788;9.208;2022-10-10T09:02:24;15.50;99.90
21811;DHT22;11067;48.788;9.208;2022-10-10T09:04:51;15.50;99.90
21811;DHT22;11067;48.788;9.208;2022-10-10T09:07:54;15.70;99.90
21811;DHT22;11067;48.788;9.208;2022-10-10T09:13:36;15.90;99.90
21811;DHT22;11067;48.788;9.208;2022-10-10T09:16:07;16.00;99.90
21811;DHT22;11067;48.788;9.208;2022-10-10T09:19:41;16.10;99.90
21811;DHT22;11067;48.788;9.208;2022-10-10T09:21:35;16.20;99.90
21811;DHT22;11067;48.788;9.208;2022-10-10T09:24:29;16.10;99.90
21811;DHT22;11067;48.788;9.208;2022-10-10T09:27:05;16.20;99.90
21811;DHT22;11067;48.788;9.208;2022-10-10T09:29:52;16.20;99.90
21811;DHT22;11067;48.788;9.208;2022-10-10T09:32:20;16.40;99.90
21811;DHT22;11067;48.788;9.208;2022-10-10T09:34:55;16.30;99.90
21811;DHT22;11067;48.788;9.208;2022-10-10T09:37:29;16.50;99.90
21811;DHT22;11067;48.788;9.208;2022-10-10T09:40:02;16.40;99.90
21811;DHT22;11067;48.788;9.208;2022-10-10T09:42:38;16.50;99.90
21811;DHT22;11067;48.788;9.208;2022-10-10T09:47:42;16.70;99.90
21811;DHT22;11067;48.788;9.208;2022-10-10T09:50:12;17.00;99.90
21811;DHT22;11067;48.788;9.208;2022-10-10T09:52:39;17.10;99.90
21811;DHT22;11067;48.788;9.208;2022-10-10T09:55:17;17.00;99.90
21811;DHT22;11067;48.788;9.208;2022-10-10T09:57:46;16.90;99.90
21811;DHT22;11067;48.788;9.208;2022-10-10T10:02:47;17.40;99.90
21811;DHT22;11067;48.788;9.208;2022-10-10T10:05:31;17.80;99.90
21811;DHT22;11067;48.788;9.208;2022-10-10T10:07:57;17.80;99.90
21811;DHT22;11067;48.788;9.208;2022-10-10T10:10:24;17.70;99.90
21811;DHT22;11067;48.788;9.208;2022-10-10T10:12:55;17.60;99.90
21811;DHT22;11067;48.788;9.208;2022-10-10T10:15:25;17.70;99.90
21811;DHT22;11067;48.788;9.208;2022-10-10T10:26:26;18.70;99.90
21811;DHT22;11067;48.788;9.208;2022-10-10T10:28:53;18.90;99.90
21811;DHT22;11067;48.788;9.208;2022-10-10T10:34:32;19.30;99.90
21811;DHT22;11067;48.788;9.208;2022-10-10T10:42:25;19.60;99.90
21811;DHT22;11067;48.788;9.208;2022-10-10T10:47:41;19.90;99.90
21811;DHT22;11067;48.788;9.208;2022-10-10T10:50:26;19.80;99.90
21811;DHT22;11067;48.788;9.208;2022-10-10T10:52:59;19.60;99.90
21811;DHT22;11067;48.788;9.208;2022-10-10T10:55:36;19.60;99.90
21811;DHT22;11067;48.788;9.208;2022-10-10T11:00:57;19.70;99.90
21811;DHT22;11067;48.788;9.208;2022-10-10T11:14:39;19.90;99.90
21811;DHT22;11067;48.788;9.208;2022-10-10T11:17:22;19.90;99.90
21811;DHT22;11067;48.788;9.208;2022-10-10T11:22:57;20.40;99.90
21811;DHT22;11067;48.788;9.208;2022-10-10T11:25:21;20.50;99.90
21811;DHT22;11067;48.788;9.208;2022-10-10T11:30:23;20.40;99.90
21811;DHT22;11067;48.788;9.208;2022-10-10T11:33:06;20.40;99.90
21811;DHT22;11067;48.788;9.208;2022-10-10T11:38:39;20.20;99.90
21811;DHT22;11067;48.788;9.208;2022-10-10T11:41:21;20.20;99.90
21811;DHT22;11067;48.788;9.208;2022-10-10T11:44:23;20.30;99.90
21811;DHT22;11067;48.788;9.208;2022-10-10T11:47:05;20.40;99.90
21811;DHT22;11067;48.788;9.208;2022-10-10T11:49:42;20.50;99.90
21811;DHT22;11067;48.788;9.208;2022-10-10T11:52:51;20.40;99.90
21811;DHT22;11067;48.788;9.208;2022-10-10T11:55:22;20.30;99.90
21811;DHT22;11067;48.788;9.208;2022-10-10T12:00:50;20.70;99.90
21811;DHT22;11067;48.788;9.208;2022-10-10T12:03:17;20.80;99.90
21811;DHT22;11067;48.788;9.208;2022-10-10T12:05:49;20.80;99.90
21811;DHT22;11067;48.788;9.208;2022-10-10T12:08:23;20.70;99.90
21811;DHT22;11067;48.788;9.208;2022-10-10T12:13:58;20.80;99.90
21811;DHT22;11067;48.788;9.208;2022-10-10T12:16:28;20.90;99.90
21811;DHT22;11067;48.788;9.208;2022-10-10T12:18:59;20.90;99.90
21811;DHT22;11067;48.788;9.208;2022-10-10T12:21:26;20.90;99.90
21811;DHT22;11067;48.788;9.208;2022-10-10T12:24:18;21.10;99.90
21811;DHT22;11067;48.788;9.208;2022-10-10T12:30:10;21.60;99.90
21811;DHT22;11067;48.788;9.208;2022-10-10T12:35:28;21.60;99.90
21811;DHT22;11067;48.788;9.208;2022-10-10T12:38:09;21.70;99.90
21811;DHT22;11067;48.788;9.208;2022-10-10T12:41:08;21.90;99.90
21811;DHT22;11067;48.788;9.208;2022-10-10T12:46:24;22.10;99.90
21811;DHT22;11067;48.788;9.208;2022-10-10T12:51:56;21.80;99.90
21811;DHT22;11067;48.788;9.208;2022-10-10T12:54:27;21.50;99.90
21811;DHT22;11067;48.788;9.208;2022-10-10T12:59:45;21.50;99.90
21811;DHT22;11067;48.788;9.208;2022-10-10T13:02:24;21.70;99.90
21811;DHT22;11067;48.788;9.208;2022-10-10T13:04:57;21.70;99.90
21811;DHT22;11067;48.788;9.208;2022-10-10T13:07:25;21.90;99.90
21811;DHT22;11067;48.788;9.208;2022-10-10T13:09:53;21.90;99.90
21811;DHT22;11067;48.788;9.208;2022-10-10T13:12:27;22.00;99.90
21811;DHT22;11067;48.788;9.208;2022-10-10T13:14:54;21.70;99.90
21811;DHT22;11067;48.788;9.208;2022-10-10T13:17:28;21.70;99.90
21811;DHT22;11067;48.788;9.208;2022-10-10T13:19:57;21.40;99.90
21811;DHT22;11067;48.788;9.208;2022-10-10T13:22:23;21.30;99.90
21811;DHT22;11067;48.788;9.208;2022-10-10T13:24:50;21.20;99.90
21811;DHT22;11067;48.788;9.208;2022-10-10T13:27:30;21.10;99.90
21811;DHT22;11067;48.788;9.208;2022-10-10T13:29:56;21.10;99.90
21811;DHT22;11067;48.788;9.208;2022-10-10T13:32:26;20.90;99.90
21811;DHT22;11067;48.788;9.208;2022-10-10T13:34:57;20.90;99.90
21811;DHT22;11067;48.788;9.208;2022-10-10T13:37:24;21.10;99.90
21811;DHT22;11067;48.788;9.208;2022-10-10T13:39:51;21.20;99.90
21811;DHT22;11067;48.788;9.208;2022-10-10T13:42:36;21.30;99.90
21811;DHT22;11067;48.788;9.208;2022-10-10T13:52:46;21.30;99.90
21811;DHT22;11067;48.788;9.208;2022-10-10T13:55:14;21.40;99.90
21811;DHT22;11067;48.788;9.208;2022-10-10T13:57:40;21.40;99.90
21811;DHT22;11067;48.788;9.208;2022-10-10T14:00:14;21.30;99.90
21811;DHT22;11067;48.788;9.208;2022-10-10T14:02:42;21.50;99.90
21811;DHT22;11067;48.788;9.208;2022-10-10T14:05:16;21.40;99.90
21811;DHT22;11067;48.788;9.208;2022-10-10T14:07:48;21.50;99.90
21811;DHT22;11067;48.788;9.208;2022-10-10T14:10:18;21.40;99.90
21811;DHT22;11067;48.788;9.208;2022-10-10T14:18:01;21.80;99.90
21811;DHT22;11067;48.788;9.208;2022-10-10T14:20:27;21.70;99.90
21811;DHT22;11067;48.788;9.208;2022-10-10T14:22:53;21.70;99.90
21811;DHT22;11067;48.788;9.208;2022-10-10T14:25:18;21.80;99.90
21811;DHT22;11067;48.788;9.208;2022-10-10T14:27:44;21.60;99.90
21811;DHT22;11067;48.788;9.208;2022-10-10T14:30:12;21.40;99.90
21811;DHT22;11067;48.788;9.208;2022-10-10T14:32:38;21.40;99.90
21811;DHT22;11067;48.788;9.208;2022-10-10T14:35:04;21.40;99.90
21811;DHT22;11067;48.788;9.208;2022-10-10T14:37:30;21.50;99.90
21811;DHT22;11067;48.788;9.208;2022-10-10T14:39:56;21.50;99.90
21811;DHT22;11067;48.788;9.208;2022-10-10T14:42:23;21.70;99.90
21811;DHT22;11067;48.788;9.208;2022-10-10T14:44:49;21.60;99.90
21811;DHT22;11067;48.788;9.208;2022-10-10T14:47:17;21.60;99.90
21811;DHT22;11067;48.788;9.208;2022-10-10T14:49:43;21.50;99.90
21811;DHT22;11067;48.788;9.208;2022-10-10T14:52:09;21.50;99.90
21811;DHT22;11067;48.788;9.208;2022-10-10T14:54:34;21.50;99.90
21811;DHT22;11067;48.788;9.208;2022-10-10T14:57:00;21.50;99.90
21811;DHT22;11067;48.788;9.208;2022-10-10T14:59:25;21.50;99.90
21811;DHT22;11067;48.788;9.208;2022-10-10T15:01:51;21.50;99.90
21811;DHT22;11067;48.788;9.208;2022-10-10T15:04:16;21.40;99.90
21811;DHT22;11067;48.788;9.208;2022-10-10T15:06:42;21.40;99.90
21811;DHT22;11067;48.788;9.208;2022-10-10T15:09:09;21.30;99.90
21811;DHT22;11067;48.788;9.208;2022-10-10T15:11:35;21.30;99.90
21811;DHT22;11067;48.788;9.208;2022-10-10T15:14:01;21.30;99.90
21811;DHT22;11067;48.788;9.208;2022-10-10T15:16:27;21.20;99.90
21811;DHT22;11067;48.788;9.208;2022-10-10T15:18:52;21.20;99.90
21811;DHT22;11067;48.788;9.208;2022-10-10T15:21:18;21.20;99.90
21811;DHT22;11067;48.788;9.208;2022-10-10T15:23:43;21.30;99.90
21811;DHT22;11067;48.788;9.208;2022-10-10T15:26:09;21.30;99.90
21811;DHT22;11067;48.788;9.208;2022-10-10T15:28:34;21.20;99.90
21811;DHT22;11067;48.788;9.208;2022-10-10T15:31:00;21.30;99.90
21811;DHT22;11067;48.788;9.208;2022-10-10T15:33:26;21.30;99.90
21811;DHT22;11067;48.788;9.208;2022-10-10T15:36:06;21.30;99.90
21811;DHT22;11067;48.788;9.208;2022-10-10T15:38:33;21.20;99.90
21811;DHT22;11067;48.788;9.208;2022-10-10T15:41:02;21.20;99.90
21811;DHT22;11067;48.788;9.208;2022-10-10T15:43:28;21.20;99.90
21811;DHT22;11067;48.788;9.208;2022-10-10T15:45:54;21.30;99.90
21811;DHT22;11067;48.788;9.208;2022-10-10T15:48:24;21.20;99.90
21811;DHT22;11067;48.788;9.208;2022-10-10T15:50:49;21.20;99.90
21811;DHT22;11067;48.788;9.208;2022-10-10T15:53:18;21.10;99.90
21811;DHT22;11067;48.788;9.208;2022-10-10T15:55:45;21.10;99.90
21811;DHT22;11067;48.788;9.208;2022-10-10T15:58:11;21.00;99.90
21811;DHT22;11067;48.788;9.208;2022-10-10T16:00:38;21.00;99.90
21811;DHT22;11067;48.788;9.208;2022-10-10T16:03:03;20.90;99.90
21811;DHT22;11067;48.788;9.208;2022-10-10T16:05:29;20.80;99.90
21811;DHT22;11067;48.788;9.208;2022-10-10T16:07:56;20.70;99.90
21811;DHT22;11067;48.788;9.208;2022-10-10T16:10:22;20.70;99.90
21811;DHT22;11067;48.788;9.208;2022-10-10T16:12:47;20.60;99.90
21811;DHT22;11067;48.788;9.208;2022-10-10T16:15:13;20.60;99.90
21811;DHT22;11067;48.788;9.208;2022-10-10T16:17:39;20.50;99.90
21811;DHT22;11067;48.788;9.208;2022-10-10T16:20:04;20.40;99.90
21811;DHT22;11067;48.788;9.208;2022-10-10T16:22:30;20.30;99.90
21811;DHT22;11067;48.788;9.208;2022-10-10T16:24:55;20.20;99.90
21811;DHT22;11067;48.788;9.208;2022-10-10T16:27:21;20.00;99.90
21811;DHT22;11067;48.788;9.208;2022-10-10T16:29:46;19.80;99.90
21811;DHT22;11067;48.788;9.208;2022-10-10T16:32:12;19.70;99.90
21811;DHT22;11067;48.788;9.208;2022-10-10T16:34:38;19.60;99.90
21811;DHT22;11067;48.788;9.208;2022-10-10T16:37:03;19.60;99.90
21811;DHT22;11067;48.788;9.208;2022-10-10T16:39:29;19.60;99.90
21811;DHT22;11067;48.788;9.208;2022-10-10T16:41:54;19.50;99.90
21811;DHT22;11067;48.788;9.208;2022-10-10T16:44:20;19.40;99.90
21811;DHT22;11067;48.788;9.208;2022-10-10T16:46:45;19.30;99.90
21811;DHT22;11067;48.788;9.208;2022-10-10T16:49:11;19.30;99.90
21811;DHT22;11067;48.788;9.208;2022-10-10T16:51:37;19.20;99.90
21811;DHT22;11067;48.788;9.208;2022-10-10T16:54:03;19.20;99.90
21811;DHT22;11067;48.788;9.208;2022-10-10T16:56:30;19.10;99.90
21811;DHT22;11067;48.788;9.208;2022-10-10T16:58:58;19.00;99.90
21811;DHT22;11067;48.788;9.208;2022-10-10T17:01:24;18.80;99.90
21811;DHT22;11067;48.788;9.208;2022-10-10T17:03:50;18.70;99.90
21811;DHT22;11067;48.788;9.208;2022-10-10T17:06:18;18.60;99.90
21811;DHT22;11067;48.788;9.208;2022-10-10T17:08:49;18.60;99.90
21811;DHT22;11067;48.788;9.208;2022-10-10T17:11:15;18.60;99.90
21811;DHT22;11067;48.788;9.208;2022-10-10T17:13:42;18.50;99.90
21811;DHT22;11067;48.788;9.208;2022-10-10T17:16:11;18.50;99.90
21811;DHT22;11067;48.788;9.208;2022-10-10T17:18:38;18.40;99.90
21811;DHT22;11067;48.788;9.208;2022-10-10T17:21:08;18.40;99.90
21811;DHT22;11067;48.788;9.208;2022-10-10T17:23:34;18.30;99.90
21811;DHT22;11067;48.788;9.208;2022-10-10T17:26:00;18.20;99.90
21811;DHT22;11067;48.788;9.208;2022-10-10T17:28:25;18.10;99.90
21811;DHT22;11067;48.788;9.208;2022-10-10T17:30:51;18.10;99.90